createdAt,value
2024-05-09T00:00:06.747Z,95684.00
2024-05-09T00:01:05.250Z,95683.00
2024-05-09T00:02:05.335Z,95682.00
2024-05-09T00:03:05.274Z,95681.00
2024-05-09T00:04:05.280Z,95680.00
2024-05-09T00:05:05.323Z,95679.00
2024-05-09T00:06:05.586Z,95679.00
2024-05-09T00:07:05.235Z,95678.00
2024-05-09T00:08:05.401Z,95677.00
2024-05-09T00:09:05.227Z,95679.00
2024-05-09T00:10:07.141Z,95678.00
2024-05-09T00:11:05.387Z,95677.00
2024-05-09T00:12:05.518Z,95679.00
2024-05-09T00:13:05.432Z,95679.00
2024-05-09T00:14:05.284Z,95680.00
2024-05-09T00:15:05.228Z,95680.00
2024-05-09T00:16:05.233Z,95682.00
2024-05-09T00:17:05.302Z,95679.00
2024-05-09T00:18:06.101Z,95679.00
2024-05-09T00:19:05.372Z,95679.00
2024-05-09T00:20:10.911Z,95680.00
2024-05-09T00:21:06.450Z,95679.00
2024-05-09T00:22:05.251Z,95680.00
2024-05-09T00:23:05.328Z,95682.00
2024-05-09T00:24:05.252Z,95683.00
2024-05-09T00:25:05.224Z,95681.00
2024-05-09T00:26:05.369Z,95681.00
2024-05-09T00:27:05.246Z,95680.00
2024-05-09T00:28:05.484Z,95680.00
2024-05-09T00:29:05.334Z,95678.00
2024-05-09T00:30:07.203Z,95678.00
2024-05-09T00:31:05.243Z,95677.00
2024-05-09T00:32:05.397Z,95674.00
2024-05-09T00:33:06.601Z,95674.00
2024-05-09T00:34:05.824Z,95673.00
2024-05-09T00:35:05.496Z,95672.00
2024-05-09T00:36:05.523Z,95673.00
2024-05-09T00:37:05.665Z,95669.00
2024-05-09T00:38:05.698Z,95670.00
2024-05-09T00:39:05.652Z,95669.00
2024-05-09T00:40:07.406Z,95668.00
2024-05-09T00:41:05.786Z,95668.00
2024-05-09T00:42:05.753Z,95666.00
2024-05-09T00:43:05.812Z,95664.00
2024-05-09T00:44:05.847Z,95665.00
2024-05-09T00:45:05.841Z,95664.00
2024-05-09T00:46:05.901Z,95662.00
2024-05-09T00:47:06.080Z,95663.00
2024-05-09T00:48:06.150Z,95662.00
2024-05-09T00:49:06.070Z,95662.00
2024-05-09T00:50:10.104Z,95658.00
2024-05-09T00:51:07.112Z,95657.00
2024-05-09T00:52:06.035Z,95659.00
2024-05-09T00:53:06.180Z,95656.00
2024-05-09T00:54:06.069Z,95654.00
2024-05-09T00:55:06.054Z,95653.00
2024-05-09T00:56:06.053Z,95651.00
2024-05-09T00:57:06.115Z,95647.00
2024-05-09T00:58:06.055Z,95645.00
2024-05-09T00:59:06.094Z,95645.00
2024-05-09T01:00:07.769Z,95641.00
2024-05-09T01:01:06.088Z,95641.00
2024-05-09T01:02:06.125Z,95640.00
2024-05-09T01:03:06.275Z,95639.00
2024-05-09T01:04:06.118Z,95637.00
2024-05-09T01:05:06.137Z,95634.00
2024-05-09T01:06:06.077Z,95634.00
2024-05-09T01:07:06.081Z,95634.00
2024-05-09T01:08:06.091Z,95631.00
2024-05-09T01:09:06.068Z,95631.00
2024-05-09T01:10:11.486Z,95631.00
2024-05-09T01:11:07.133Z,95628.00
2024-05-09T01:12:06.150Z,95630.00
2024-05-09T01:13:06.490Z,95630.00
2024-05-09T01:14:06.122Z,95631.00
2024-05-09T01:15:06.072Z,95628.00
2024-05-09T01:16:06.150Z,95627.00
2024-05-09T01:17:06.107Z,95629.00
2024-05-09T01:18:06.181Z,95631.00
2024-05-09T01:19:06.157Z,95630.00
2024-05-09T01:20:08.153Z,95631.00
2024-05-09T01:21:06.084Z,95630.00
2024-05-09T01:22:06.075Z,95633.00
2024-05-09T01:23:06.150Z,95631.00
2024-05-09T01:24:06.090Z,95631.00
2024-05-09T01:25:06.056Z,95632.00
2024-05-09T01:26:06.111Z,95633.00
2024-05-09T01:27:06.106Z,95634.00
2024-05-09T01:28:06.140Z,95635.00
2024-05-09T01:29:06.132Z,95637.00
2024-05-09T01:30:09.528Z,95634.00
2024-05-09T01:31:07.079Z,95636.00
2024-05-09T01:32:06.203Z,95635.00
2024-05-09T01:33:07.887Z,95637.00
2024-05-09T01:34:06.109Z,95638.00
2024-05-09T01:35:06.093Z,95635.00
2024-05-09T01:36:06.083Z,95637.00
2024-05-09T01:37:06.110Z,95633.00
2024-05-09T01:38:06.339Z,95635.00
2024-05-09T01:39:06.095Z,95635.00
2024-05-09T01:40:09.590Z,95637.00
2024-05-09T01:41:07.133Z,95636.00
2024-05-09T01:42:06.103Z,95637.00
2024-05-09T01:43:06.216Z,95632.00
2024-05-09T01:44:06.139Z,95634.00
2024-05-09T01:45:06.093Z,95632.00
2024-05-09T01:46:06.106Z,95633.00
2024-05-09T01:47:06.136Z,95633.00
2024-05-09T01:48:06.536Z,95631.00
2024-05-09T01:49:06.281Z,95632.00
2024-05-09T01:50:09.047Z,95632.00
2024-05-09T01:51:06.129Z,95631.00
2024-05-09T01:52:06.114Z,95632.00
2024-05-09T01:53:06.201Z,95632.00
2024-05-09T01:54:06.095Z,95635.00
2024-05-09T01:55:06.892Z,95634.00
2024-05-09T01:56:06.171Z,95634.00
2024-05-09T01:57:06.154Z,95635.00
2024-05-09T01:58:06.195Z,95634.00
2024-05-09T01:59:06.206Z,95634.00
2024-05-09T02:00:07.726Z,95635.00
2024-05-09T02:01:06.192Z,95633.00
2024-05-09T02:02:06.190Z,95632.00
2024-05-09T02:03:06.343Z,95633.00
2024-05-09T02:04:06.545Z,95633.00
2024-05-09T02:05:06.433Z,95632.00
2024-05-09T02:06:06.419Z,95633.00
2024-05-09T02:07:06.166Z,95634.00
2024-05-09T02:08:06.128Z,95632.00
2024-05-09T02:09:06.141Z,95633.00
2024-05-09T02:10:13.640Z,95633.00
2024-05-09T02:11:07.200Z,95632.00
2024-05-09T02:12:06.379Z,95631.00
2024-05-09T02:13:06.131Z,95631.00
2024-05-09T02:14:06.167Z,95629.00
2024-05-09T02:15:06.137Z,95630.00
2024-05-09T02:16:06.161Z,95629.00
2024-05-09T02:17:06.234Z,95628.00
2024-05-09T02:18:06.306Z,95629.00
2024-05-09T02:19:06.297Z,95630.00
2024-05-09T02:20:06.520Z,95628.00
2024-05-09T02:21:06.188Z,95633.00
2024-05-09T02:22:06.170Z,95632.00
2024-05-09T02:23:06.756Z,95633.00
2024-05-09T02:24:06.142Z,95632.00
2024-05-09T02:26:03.885Z,95630.00
2024-05-09T02:27:03.845Z,95628.00
2024-05-09T02:28:03.841Z,95629.00
2024-05-09T02:29:03.856Z,95628.00
2024-05-09T02:30:07.840Z,95628.00
2024-05-09T02:31:04.868Z,95629.00
2024-05-09T02:32:03.997Z,95628.00
2024-05-09T02:33:04.016Z,95624.00
2024-05-09T02:34:04.088Z,95623.00
2024-05-09T02:35:03.885Z,95624.00
2024-05-09T02:36:03.850Z,95623.00
2024-05-09T02:37:03.876Z,95622.00
2024-05-09T02:38:03.947Z,95624.00
2024-05-09T02:39:03.844Z,95622.00
2024-05-09T02:40:05.598Z,95621.00
2024-05-09T02:41:03.970Z,95623.00
2024-05-09T02:42:03.872Z,95621.00
2024-05-09T02:43:03.990Z,95619.00
2024-05-09T02:44:03.941Z,95620.00
2024-05-09T02:45:03.850Z,95621.00
2024-05-09T02:46:03.903Z,95620.00
2024-05-09T02:47:03.949Z,95620.00
2024-05-09T02:48:04.272Z,95621.00
2024-05-09T02:49:04.102Z,95621.00
2024-05-09T02:50:05.969Z,95619.00
2024-05-09T02:51:04.108Z,95620.00
2024-05-09T02:52:04.122Z,95621.00
2024-05-09T02:53:04.323Z,95621.00
2024-05-09T02:54:04.189Z,95622.00
2024-05-09T02:55:04.234Z,95623.00
2024-05-09T02:56:04.334Z,95624.00
2024-05-09T02:57:04.311Z,95624.00
2024-05-09T02:58:04.362Z,95623.00
2024-05-09T02:59:04.442Z,95622.00
2024-05-09T03:00:06.117Z,95623.00
2024-05-09T03:01:04.540Z,95622.00
2024-05-09T03:02:04.587Z,95620.00
2024-05-09T03:03:04.734Z,95621.00
2024-05-09T03:04:04.603Z,95619.00
2024-05-09T03:05:04.562Z,95621.00
2024-05-09T03:06:04.528Z,95621.00
2024-05-09T03:07:04.441Z,95620.00
2024-05-09T03:08:04.730Z,95618.00
2024-05-09T03:09:04.466Z,95616.00
2024-05-09T03:10:05.764Z,95619.00
2024-05-09T03:11:04.534Z,95616.00
2024-05-09T03:12:04.608Z,95616.00
2024-05-09T03:13:04.471Z,95617.00
2024-05-09T03:14:04.511Z,95615.00
2024-05-09T03:15:04.478Z,95615.00
2024-05-09T03:16:04.447Z,95616.00
2024-05-09T03:17:04.562Z,95616.00
2024-05-09T03:18:04.783Z,95618.00
2024-05-09T03:19:04.822Z,95619.00
2024-05-09T03:20:06.972Z,95620.00
2024-05-09T03:21:05.592Z,95619.00
2024-05-09T03:22:04.546Z,95621.00
2024-05-09T03:23:05.233Z,95623.00
2024-05-09T03:24:04.473Z,95624.00
2024-05-09T03:25:04.484Z,95623.00
2024-05-09T03:26:04.516Z,95624.00
2024-05-09T03:27:04.493Z,95624.00
2024-05-09T03:28:04.499Z,95626.00
2024-05-09T03:29:04.586Z,95625.00
2024-05-09T03:30:07.306Z,95624.00
2024-05-09T03:31:04.504Z,95626.00
2024-05-09T03:32:04.621Z,95623.00
2024-05-09T03:33:04.676Z,95624.00
2024-05-09T03:34:04.842Z,95624.00
2024-05-09T03:35:04.515Z,95621.00
2024-05-09T03:36:06.192Z,95621.00
2024-05-09T03:37:04.519Z,95622.00
2024-05-09T03:38:04.586Z,95623.00
2024-05-09T03:39:04.487Z,95625.00
2024-05-09T03:40:09.170Z,95625.00
2024-05-09T03:41:05.555Z,95626.00
2024-05-09T03:42:04.538Z,95626.00
2024-05-09T03:43:04.524Z,95625.00
2024-05-09T03:44:04.547Z,95624.00
2024-05-09T03:45:04.520Z,95625.00
2024-05-09T03:46:04.522Z,95626.00
2024-05-09T03:47:04.549Z,95623.00
2024-05-09T03:48:04.740Z,95623.00
2024-05-09T03:49:04.624Z,95624.00
2024-05-09T03:50:05.780Z,95625.00
2024-05-09T03:51:04.650Z,95623.00
2024-05-09T03:52:04.540Z,95625.00
2024-05-09T03:53:04.647Z,95627.00
2024-05-09T03:54:04.515Z,95629.00
2024-05-09T03:55:04.526Z,95631.00
2024-05-09T03:56:04.575Z,95633.00
2024-05-09T03:57:04.493Z,95634.00
2024-05-09T03:58:04.509Z,95636.00
2024-05-09T03:59:04.528Z,95637.00
2024-05-09T04:00:07.414Z,95637.00
2024-05-09T04:01:05.602Z,95639.00
2024-05-09T04:02:04.650Z,95639.00
2024-05-09T04:03:05.494Z,95640.00
2024-05-09T04:04:04.614Z,95639.00
2024-05-09T04:05:04.590Z,95640.00
2024-05-09T04:06:04.571Z,95642.00
2024-05-09T04:07:04.538Z,95643.00
2024-05-09T04:08:04.641Z,95645.00
2024-05-09T04:09:04.561Z,95645.00
2024-05-09T04:10:06.796Z,95644.00
2024-05-09T04:11:04.708Z,95648.00
2024-05-09T04:12:04.761Z,95649.00
2024-05-09T04:13:04.652Z,95645.00
2024-05-09T04:14:04.631Z,95649.00
2024-05-09T04:15:04.547Z,95648.00
2024-05-09T04:16:04.564Z,95648.00
2024-05-09T04:17:04.600Z,95646.00
2024-05-09T04:18:04.786Z,95647.00
2024-05-09T04:19:04.710Z,95647.00
2024-05-09T04:20:06.564Z,95648.00
2024-05-09T04:21:04.756Z,95647.00
2024-05-09T04:22:04.586Z,95647.00
2024-05-09T04:23:04.638Z,95647.00
2024-05-09T04:24:04.581Z,95646.00
2024-05-09T04:25:04.606Z,95648.00
2024-05-09T04:26:04.676Z,95647.00
2024-05-09T04:27:04.582Z,95649.00
2024-05-09T04:28:04.587Z,95648.00
2024-05-09T04:29:04.639Z,95651.00
2024-05-09T04:30:06.192Z,95653.00
2024-05-09T04:31:04.590Z,95654.00
2024-05-09T04:32:04.676Z,95655.00
2024-05-09T04:33:04.748Z,95654.00
2024-05-09T04:34:12.343Z,95655.00
2024-05-09T04:35:12.175Z,95654.00
2024-05-09T04:36:12.151Z,95654.00
2024-05-09T04:37:12.156Z,95652.00
2024-05-09T04:38:12.245Z,95655.00
2024-05-09T04:39:12.151Z,95653.00
2024-05-09T04:40:21.026Z,95653.00
2024-05-09T04:41:13.210Z,95654.00
2024-05-09T04:42:12.128Z,95654.00
2024-05-09T04:43:12.173Z,95655.00
2024-05-09T04:44:12.192Z,95650.00
2024-05-09T04:45:12.161Z,95653.00
2024-05-09T04:46:12.162Z,95655.00
2024-05-09T04:47:12.303Z,95654.00
2024-05-09T04:48:12.419Z,95654.00
2024-05-09T04:49:12.255Z,95655.00
2024-05-09T04:50:20.993Z,95657.00
2024-05-09T04:51:13.212Z,95658.00
2024-05-09T04:52:12.181Z,95659.00
2024-05-09T04:53:12.273Z,95660.00
2024-05-09T04:54:25.753Z,95663.00
2024-05-09T04:55:13.175Z,95665.00
2024-05-09T04:56:12.202Z,95664.00
2024-05-09T04:57:12.159Z,95666.00
2024-05-09T04:58:12.247Z,95667.00
2024-05-09T04:59:12.272Z,95665.00
2024-05-09T05:00:14.956Z,95664.00
2024-05-09T05:01:13.240Z,95667.00
2024-05-09T05:02:12.256Z,95666.00
2024-05-09T05:03:14.691Z,95668.00
2024-05-09T05:04:12.283Z,95668.00
2024-05-09T05:05:12.343Z,95669.00
2024-05-09T05:06:12.187Z,95665.00
2024-05-09T05:07:12.192Z,95665.00
2024-05-09T05:08:12.300Z,95667.00
2024-05-09T05:09:12.196Z,95667.00
2024-05-09T05:10:21.321Z,95666.00
2024-05-09T05:11:13.512Z,95663.00
2024-05-09T05:12:12.398Z,95664.00
2024-05-09T05:13:12.188Z,95666.00
2024-05-09T05:14:12.194Z,95666.00
2024-05-09T05:15:12.199Z,95666.00
2024-05-09T05:16:12.226Z,95667.00
2024-05-09T05:17:12.320Z,95668.00
2024-05-09T05:18:12.247Z,95667.00
2024-05-09T05:19:15.092Z,95670.00
2024-05-09T05:20:15.261Z,95670.00
2024-05-09T05:21:13.323Z,95672.00
2024-05-09T05:22:12.217Z,95671.00
2024-05-09T05:23:12.308Z,95670.00
2024-05-09T05:24:12.204Z,95671.00
2024-05-09T05:25:12.290Z,95671.00
2024-05-09T05:26:12.308Z,95670.00
2024-05-09T05:27:12.242Z,95670.00
2024-05-09T05:28:12.255Z,95669.00
2024-05-09T05:29:12.352Z,95670.00
2024-05-09T05:31:12.317Z,95670.00
2024-05-09T05:32:12.359Z,95670.00
2024-05-09T05:33:12.531Z,95672.00
2024-05-09T05:34:12.348Z,95673.00
2024-05-09T05:35:12.363Z,95674.00
2024-05-09T05:36:12.364Z,95674.00
2024-05-09T05:37:12.441Z,95675.00
2024-05-09T05:38:12.494Z,95675.00
2024-05-09T05:39:12.505Z,95678.00
2024-05-09T05:40:20.930Z,95677.00
2024-05-09T05:41:13.596Z,95679.00
2024-05-09T05:42:12.578Z,95679.00
2024-05-09T05:43:12.553Z,95679.00
2024-05-09T05:44:12.572Z,95679.00
2024-05-09T05:45:12.562Z,95679.00
2024-05-09T05:46:12.581Z,95679.00
2024-05-09T05:47:12.701Z,95678.00
2024-05-09T05:48:12.868Z,95679.00
2024-05-09T05:49:12.851Z,95681.00
2024-05-09T05:50:23.639Z,95681.00
2024-05-09T05:51:13.795Z,95680.00
2024-05-09T05:52:12.574Z,95680.00
2024-05-09T05:53:12.646Z,95679.00
2024-05-09T05:54:12.580Z,95680.00
2024-05-09T05:55:12.600Z,95680.00
2024-05-09T05:56:12.684Z,95678.00
2024-05-09T05:57:12.579Z,95678.00
2024-05-09T05:58:12.748Z,95677.00
2024-05-09T05:59:15.049Z,95679.00
2024-05-09T06:01:12.968Z,95679.00
2024-05-09T06:02:13.129Z,95677.00
2024-05-09T06:03:13.712Z,95675.00
2024-05-09T06:04:13.144Z,95675.00
2024-05-09T06:05:13.184Z,95674.00
2024-05-09T06:06:13.117Z,95674.00
2024-05-09T06:07:13.131Z,95671.00
2024-05-09T06:08:13.266Z,95674.00
2024-05-09T06:09:13.256Z,95675.00
2024-05-09T06:10:20.955Z,95673.00
2024-05-09T06:11:14.337Z,95672.00
2024-05-09T06:12:13.429Z,95672.00
2024-05-09T06:13:14.278Z,95670.00
2024-05-09T06:14:13.302Z,95670.00
2024-05-09T06:15:13.310Z,95671.00
2024-05-09T06:16:13.324Z,95671.00
2024-05-09T06:17:13.500Z,95672.00
2024-05-09T06:18:13.623Z,95672.00
2024-05-09T06:19:13.374Z,95672.00
2024-05-09T06:20:20.450Z,95669.00
2024-05-09T06:21:14.474Z,95669.00
2024-05-09T06:22:13.303Z,95671.00
2024-05-09T06:23:13.666Z,95670.00
2024-05-09T06:24:13.290Z,95669.00
2024-05-09T06:25:13.325Z,95670.00
2024-05-09T06:26:13.367Z,95668.00
2024-05-09T06:27:13.310Z,95668.00
2024-05-09T06:28:13.315Z,95668.00
2024-05-09T06:29:13.356Z,95668.00
2024-05-09T06:30:24.885Z,95666.00
2024-05-09T06:31:14.314Z,95666.00
2024-05-09T06:32:13.388Z,95667.00
2024-05-09T06:33:15.522Z,95665.00
2024-05-09T06:34:13.532Z,95664.00
2024-05-09T06:35:13.358Z,95664.00
2024-05-09T06:36:13.306Z,95664.00
2024-05-09T06:37:13.331Z,95665.00
2024-05-09T06:38:13.541Z,95664.00
2024-05-09T06:39:13.320Z,95663.00
2024-05-09T06:40:17.431Z,95661.00
2024-05-09T06:41:13.344Z,95661.00
2024-05-09T06:42:13.316Z,95660.00
2024-05-09T06:43:13.501Z,95659.00
2024-05-09T06:44:13.374Z,95660.00
2024-05-09T06:45:13.329Z,95659.00
2024-05-09T06:46:13.311Z,95661.00
2024-05-09T06:47:13.440Z,95661.00
2024-05-09T06:48:13.524Z,95663.00
2024-05-09T06:49:13.578Z,95663.00
2024-05-09T06:50:20.448Z,95664.00
2024-05-09T06:51:14.401Z,95667.00
2024-05-09T06:52:13.316Z,95665.00
2024-05-09T06:53:13.374Z,95666.00
2024-05-09T06:54:13.326Z,95668.00
2024-05-09T06:55:13.338Z,95666.00
2024-05-09T06:56:13.424Z,95668.00
2024-05-09T06:57:13.323Z,95667.00
2024-05-09T06:58:13.345Z,95665.00
2024-05-09T06:59:13.371Z,95663.00
2024-05-09T07:01:13.381Z,95662.00
2024-05-09T07:02:13.447Z,95663.00
2024-05-09T07:03:15.680Z,95659.00
2024-05-09T07:04:13.560Z,95659.00
2024-05-09T07:05:13.515Z,95660.00
2024-05-09T07:06:13.351Z,95661.00
2024-05-09T07:07:13.356Z,95665.00
2024-05-09T07:08:14.559Z,95665.00
2024-05-09T07:09:13.382Z,95664.00
2024-05-09T07:11:13.395Z,95667.00
2024-05-09T07:12:13.562Z,95665.00
2024-05-09T07:13:13.656Z,95668.00
2024-05-09T07:14:13.456Z,95667.00
2024-05-09T07:15:13.378Z,95666.00
2024-05-09T07:16:13.350Z,95663.00
2024-05-09T07:17:13.464Z,95662.00
2024-05-09T07:18:14.074Z,95663.00
2024-05-09T07:19:13.538Z,95662.00
2024-05-09T07:20:19.990Z,95660.00
2024-05-09T07:21:14.726Z,95660.00
2024-05-09T07:22:13.354Z,95659.00
2024-05-09T07:23:13.545Z,95655.00
2024-05-09T07:24:13.362Z,95654.00
2024-05-09T07:25:13.373Z,95651.00
2024-05-09T07:26:13.415Z,95650.00
2024-05-09T07:27:13.384Z,95651.00
2024-05-09T07:28:13.397Z,95649.00
2024-05-09T07:29:13.416Z,95648.00
2024-05-09T07:31:13.385Z,95649.00
2024-05-09T07:32:13.677Z,95648.00
2024-05-09T07:33:13.547Z,95645.00
2024-05-09T07:34:13.665Z,95646.00
2024-05-09T07:35:13.440Z,95649.00
2024-05-09T07:36:13.379Z,95650.00
2024-05-09T07:37:13.404Z,95651.00
2024-05-09T07:38:13.516Z,95651.00
2024-05-09T07:39:13.374Z,95651.00
2024-05-09T07:41:14.451Z,95650.00
2024-05-09T07:42:13.387Z,95651.00
2024-05-09T07:43:13.521Z,95651.00
2024-05-09T07:44:13.421Z,95649.00
2024-05-09T07:47:13.712Z,95646.00
2024-05-09T07:48:28.645Z,95645.00
2024-05-09T07:49:45.028Z,95644.00
2024-05-09T07:53:29.603Z,95638.00
2024-05-09T07:53:37.756Z,95638.00
2024-05-09T07:54:14.935Z,95635.00
2024-05-09T07:55:13.750Z,95637.00
2024-05-09T07:56:14.105Z,95637.00
2024-05-09T07:57:13.700Z,95635.00
2024-05-09T07:58:13.654Z,95636.00
2024-05-09T07:59:13.652Z,95636.00
2024-05-09T08:00:17.332Z,95635.00
2024-05-09T08:01:14.819Z,95633.00
2024-05-09T08:02:13.755Z,95634.00
2024-05-09T08:03:13.873Z,95635.00
2024-05-09T08:04:13.807Z,95635.00
2024-05-09T08:05:13.748Z,95635.00
2024-05-09T08:06:13.701Z,95635.00
2024-05-09T08:07:13.847Z,95634.00
2024-05-09T08:08:13.675Z,95636.00
2024-05-09T08:09:16.987Z,95634.00
2024-05-09T08:10:19.126Z,95634.00
2024-05-09T08:11:14.781Z,95631.00
2024-05-09T08:12:13.667Z,95632.00
2024-05-09T08:13:13.762Z,95632.00
2024-05-09T08:14:13.693Z,95630.00
2024-05-09T08:15:13.686Z,95629.00
2024-05-09T08:16:13.919Z,95629.00
2024-05-09T08:17:13.735Z,95629.00
2024-05-09T08:18:13.833Z,95627.00
2024-05-09T08:19:13.799Z,95629.00
2024-05-09T08:20:22.830Z,95627.00
2024-05-09T08:21:14.699Z,95630.00
2024-05-09T08:22:13.827Z,95629.00
2024-05-09T08:23:13.693Z,95626.00
2024-05-09T08:24:13.672Z,95629.00
2024-05-09T08:25:14.396Z,95626.00
2024-05-09T08:26:13.698Z,95625.00
2024-05-09T08:27:13.760Z,95625.00
2024-05-09T08:28:14.039Z,95625.00
2024-05-09T08:29:13.703Z,95621.00
2024-05-09T08:31:13.751Z,95619.00
2024-05-09T08:32:13.843Z,95620.00
2024-05-09T08:33:13.928Z,95617.00
2024-05-09T08:34:13.888Z,95617.00
2024-05-09T08:35:13.709Z,95618.00
2024-05-09T08:36:13.719Z,95620.00
2024-05-09T08:38:13.775Z,95621.00
2024-05-09T08:39:13.697Z,95622.00
2024-05-09T08:40:23.632Z,95622.00
2024-05-09T08:41:14.709Z,95624.00
2024-05-09T08:42:13.722Z,95621.00
2024-05-09T08:43:13.995Z,95620.00
2024-05-09T08:44:13.722Z,95620.00
2024-05-09T08:45:13.727Z,95620.00
2024-05-09T08:46:13.875Z,95618.00
2024-05-09T08:47:13.759Z,95617.00
2024-05-09T08:48:15.226Z,95618.00
2024-05-09T08:49:13.920Z,95615.00
2024-05-09T08:50:23.575Z,95617.00
2024-05-09T08:51:14.791Z,95614.00
2024-05-09T08:52:13.824Z,95615.00
2024-05-09T08:53:13.785Z,95613.00
2024-05-09T08:54:13.765Z,95611.00
2024-05-09T08:55:13.864Z,95612.00
2024-05-09T08:56:13.783Z,95612.00
2024-05-09T08:57:13.775Z,95612.00
2024-05-09T08:58:14.140Z,95609.00
2024-05-09T08:59:13.782Z,95612.00
2024-05-09T09:00:18.162Z,95611.00
2024-05-09T09:01:14.880Z,95610.00
2024-05-09T09:02:14.165Z,95610.00
2024-05-09T09:03:13.850Z,95611.00
2024-05-09T09:04:14.002Z,95606.00
2024-05-09T09:05:13.941Z,95607.00
2024-05-09T09:06:13.801Z,95605.00
2024-05-09T09:07:13.908Z,95605.00
2024-05-09T09:08:13.826Z,95603.00
2024-05-09T09:09:13.811Z,95601.00
2024-05-09T09:10:21.112Z,95602.00
2024-05-09T09:11:14.854Z,95601.00
2024-05-09T09:12:13.821Z,95600.00
2024-05-09T09:13:14.037Z,95599.00
2024-05-09T09:14:13.847Z,95601.00
2024-05-09T09:15:13.835Z,95598.00
2024-05-09T09:16:13.862Z,95598.00
2024-05-09T09:17:13.840Z,95596.00
2024-05-09T09:18:13.911Z,95597.00
2024-05-09T09:19:14.023Z,95592.00
2024-05-09T09:20:16.720Z,95591.00
2024-05-09T09:21:14.846Z,95591.00
2024-05-09T09:22:13.840Z,95592.00
2024-05-09T09:23:13.837Z,95590.00
2024-05-09T09:24:13.832Z,95591.00
2024-05-09T09:25:13.887Z,95592.00
2024-05-09T09:26:13.826Z,95588.00
2024-05-09T09:27:13.859Z,95587.00
2024-05-09T09:28:13.920Z,95587.00
2024-05-09T09:29:13.835Z,95587.00
2024-05-09T09:30:27.687Z,95586.00
2024-05-09T09:31:14.928Z,95582.00
2024-05-09T09:32:13.917Z,95583.00
2024-05-09T09:33:14.107Z,95582.00
2024-05-09T09:34:13.970Z,95587.00
2024-05-09T09:35:13.920Z,95584.00
2024-05-09T09:36:13.918Z,95583.00
2024-05-09T09:37:13.995Z,95582.00
2024-05-09T09:38:13.985Z,95581.00
2024-05-09T09:39:14.014Z,95579.00
2024-05-09T09:40:17.997Z,95579.00
2024-05-09T09:41:14.164Z,95578.00
2024-05-09T09:42:14.102Z,95577.00
2024-05-09T09:43:14.424Z,95575.00
2024-05-09T09:44:14.135Z,95572.00
2024-05-09T09:45:14.092Z,95570.00
2024-05-09T09:46:14.224Z,95568.00
2024-05-09T09:47:14.177Z,95565.00
2024-05-09T09:48:14.189Z,95564.00
2024-05-09T09:49:14.337Z,95564.00
2024-05-09T09:50:17.112Z,95560.00
2024-05-09T09:51:15.087Z,95564.00
2024-05-09T09:52:14.180Z,95560.00
2024-05-09T09:53:14.136Z,95559.00
2024-05-09T09:54:14.093Z,95557.00
2024-05-09T09:55:14.167Z,95557.00
2024-05-09T09:56:14.098Z,95557.00
2024-05-09T09:57:14.106Z,95559.00
2024-05-09T09:58:14.696Z,95560.00
2024-05-09T09:59:14.191Z,95557.00
2024-05-09T10:00:20.712Z,95556.00
2024-05-09T10:01:15.352Z,95554.00
2024-05-09T10:02:14.487Z,95556.00
2024-05-09T10:03:14.318Z,95552.00
2024-05-09T10:04:14.344Z,95552.00
2024-05-09T10:05:14.396Z,95553.00
2024-05-09T10:06:14.251Z,95551.00
2024-05-09T10:07:14.359Z,95546.00
2024-05-09T10:08:14.243Z,95545.00
2024-05-09T10:09:14.278Z,95542.00
2024-05-09T10:10:19.856Z,95539.00
2024-05-09T10:11:15.343Z,95537.00
2024-05-09T10:12:14.446Z,95538.00
2024-05-09T10:13:14.504Z,95534.00
2024-05-09T10:14:14.350Z,95533.00
2024-05-09T10:15:14.387Z,95530.00
2024-05-09T10:16:14.462Z,95530.00
2024-05-09T10:17:14.367Z,95528.00
2024-05-09T10:18:14.627Z,95528.00
2024-05-09T10:19:14.507Z,95523.00
2024-05-09T10:20:21.427Z,95520.00
2024-05-09T10:21:15.403Z,95519.00
2024-05-09T10:22:14.573Z,95516.00
2024-05-09T10:23:14.458Z,95519.00
2024-05-09T10:24:14.409Z,95517.00
2024-05-09T10:25:14.485Z,95517.00
2024-05-09T10:26:14.430Z,95519.00
2024-05-09T10:27:14.422Z,95516.00
2024-05-09T10:28:14.561Z,95517.00
2024-05-09T10:29:14.432Z,95516.00
2024-05-09T10:30:21.293Z,95512.00
2024-05-09T10:31:15.780Z,95513.00
2024-05-09T10:32:14.535Z,95514.00
2024-05-09T10:33:14.697Z,95513.00
2024-05-09T10:34:14.727Z,95510.00
2024-05-09T10:35:14.491Z,95511.00
2024-05-09T10:36:14.546Z,95510.00
2024-05-09T10:37:14.639Z,95509.00
2024-05-09T10:38:14.909Z,95512.00
2024-05-09T10:39:14.506Z,95512.00
2024-05-09T10:40:23.262Z,95509.00
2024-05-09T10:41:15.549Z,95509.00
2024-05-09T10:42:14.534Z,95504.00
2024-05-09T10:43:14.649Z,95504.00
2024-05-09T10:44:14.522Z,95503.00
2024-05-09T10:45:14.535Z,95504.00
2024-05-09T10:46:14.852Z,95503.00
2024-05-09T10:47:14.546Z,95499.00
2024-05-09T10:48:14.583Z,95499.00
2024-05-09T10:49:14.694Z,95497.00
2024-05-09T10:50:22.294Z,95495.00
2024-05-09T10:51:15.575Z,95492.00
2024-05-09T10:52:14.594Z,95491.00
2024-05-09T10:53:14.544Z,95492.00
2024-05-09T10:54:14.535Z,95489.00
2024-05-09T10:55:14.626Z,95488.00
2024-05-09T10:56:14.686Z,95488.00
2024-05-09T10:57:14.534Z,95485.00
2024-05-09T10:58:14.742Z,95485.00
2024-05-09T10:59:14.544Z,95485.00
2024-05-09T11:00:23.269Z,95482.00
2024-05-09T11:01:15.628Z,95480.00
2024-05-09T11:02:14.762Z,95478.00
2024-05-09T11:03:14.685Z,95480.00
2024-05-09T11:04:14.908Z,95481.00
2024-05-09T11:05:14.617Z,95479.00
2024-05-09T11:06:14.567Z,95475.00
2024-05-09T11:07:14.754Z,95473.00
2024-05-09T11:08:14.567Z,95470.00
2024-05-09T11:09:14.573Z,95470.00
2024-05-09T11:10:17.937Z,95465.00
2024-05-09T11:11:15.607Z,95466.00
2024-05-09T11:12:14.609Z,95468.00
2024-05-09T11:13:14.748Z,95463.00
2024-05-09T11:14:14.552Z,95463.00
2024-05-09T11:15:14.546Z,95459.00
2024-05-09T11:16:14.593Z,95461.00
2024-05-09T11:17:14.610Z,95461.00
2024-05-09T11:18:14.624Z,95462.00
2024-05-09T11:19:14.878Z,95461.00
2024-05-09T11:20:22.645Z,95460.00
2024-05-09T11:21:15.590Z,95459.00
2024-05-09T11:22:14.619Z,95459.00
2024-05-09T11:23:14.577Z,95457.00
2024-05-09T11:24:14.596Z,95455.00
2024-05-09T11:25:14.665Z,95454.00
2024-05-09T11:26:14.592Z,95451.00
2024-05-09T11:27:14.560Z,95450.00
2024-05-09T11:28:14.785Z,95448.00
2024-05-09T11:29:17.921Z,95449.00
2024-05-09T11:30:23.765Z,95447.00
2024-05-09T11:31:15.666Z,95445.00
2024-05-09T11:32:14.693Z,95445.00
2024-05-09T11:33:14.709Z,95449.00
2024-05-09T11:34:14.630Z,95450.00
2024-05-09T11:35:14.614Z,95445.00
2024-05-09T11:36:14.585Z,95442.00
2024-05-09T11:37:14.765Z,95443.00
2024-05-09T11:38:14.637Z,95444.00
2024-05-09T11:39:14.737Z,95439.00
2024-05-09T11:40:21.437Z,95438.00
2024-05-09T11:41:15.613Z,95439.00
2024-05-09T11:42:14.600Z,95437.00
2024-05-09T11:43:14.655Z,95435.00
2024-05-09T11:44:14.637Z,95431.00
2024-05-09T11:45:14.590Z,95432.00
2024-05-09T11:46:14.915Z,95428.00
2024-05-09T11:47:14.664Z,95424.00
2024-05-09T11:48:14.719Z,95425.00
2024-05-09T11:49:14.751Z,95427.00
2024-05-09T11:50:22.526Z,95423.00
2024-05-09T11:51:15.623Z,95422.00
2024-05-09T11:52:14.704Z,95417.00
2024-05-09T11:53:14.931Z,95420.00
2024-05-09T11:54:14.621Z,95423.00
2024-05-09T11:55:14.787Z,95420.00
2024-05-09T11:56:14.623Z,95421.00
2024-05-09T11:57:14.618Z,95419.00